Time;durP1;ratioP1;P1;durP2;ratioP2;P2;SDS_P1;SDS_P2;PMS_P1;PMS_P2;Temp;Humidity;BMP_temperature;BMP_pressure;BME280_temperature;BME280_humidity;BME280_pressure;Samples;Min_cycle;Max_cycle;Signal;HPM_P1;HPM_P2
2024/04/19 00:01:33;;;;;;;1.75;1.30;;;;;;;;;;5676357;25;20212;-46
2024/04/19 00:04:00;;;;;;;0.80;0.80;;;;;;;;;;5637817;25;20208;-49
2024/04/19 00:06:31;;;;;;;1.55;1.23;;;;;;;;;;5637876;25;20213;-47
2024/04/19 00:08:58;;;;;;;2.30;1.20;;;;;;;;;;5637757;25;20259;-49
2024/04/19 00:11:27;;;;;;;0.85;0.85;;;;;;;;;;5637702;25;20239;-48
2024/04/19 00:13:54;;;;;;;0.90;0.90;;;;;;;;;;5637694;25;20209;-48
2024/04/19 00:16:25;;;;;;;1.25;1.15;;;;;;;;;;5637693;25;20209;-45
2024/04/19 00:18:51;;;;;;;3.55;1.85;;;;;;;;;;5637724;25;20249;-49
2024/04/19 00:21:20;;;;;;;1.00;1.00;;;;;;;;;;5637730;25;20209;-48
2024/04/19 00:23:49;;;;;;;0.90;0.90;;;;;;;;;;5658278;25;20639;-48
2024/04/19 00:26:21;;;;;;;1.25;1.25;;;;;;;;;;5676646;25;20264;-47
2024/04/19 00:28:48;;;;;;;0.80;0.80;;;;;;;;;;5676600;25;20260;-48
2024/04/19 00:31:17;;;;;;;1.40;1.25;;;;;;;;;;5676267;25;20267;-53
2024/04/19 00:33:44;;;;;;;2.05;1.30;;;;;;;;;;5676149;25;20207;-51
2024/04/19 00:36:13;;;;;;;1.42;1.30;;;;;;;;;;5676357;25;20781;-52
2024/04/19 00:38:40;;;;;;;1.95;1.20;;;;;;;;;;5676246;25;20215;-48
2024/04/19 00:41:12;;;;;;;0.95;0.95;;;;;;;;;;5675991;25;20627;-47
2024/04/19 00:43:38;;;;;;;2.03;1.35;;;;;;;;;;5676286;25;20682;-48
2024/04/19 00:46:08;;;;;;;1.65;1.55;;;;;;;;;;5676106;25;20551;-46
2024/04/19 00:48:34;;;;;;;1.20;1.20;;;;;;;;;;5658605;25;20699;-49
2024/04/19 00:51:04;;;;;;;1.10;1.00;;;;;;;;;;5645395;25;20224;-48
2024/04/19 00:53:32;;;;;;;1.40;1.30;;;;;;;;;;5659569;25;20221;-50
2024/04/19 00:56:04;;;;;;;1.15;1.15;;;;;;;;;;5637080;25;20252;-50
2024/04/19 00:58:34;;;;;;;1.60;1.50;;;;;;;;;;5636802;25;20700;-49
2024/04/19 01:01:07;;;;;;;1.70;1.30;;;;;;;;;;5638066;25;20300;-47
2024/04/19 01:03:33;;;;;;;1.23;1.13;;;;;;;;;;5640575;25;20707;-49
2024/04/19 01:06:03;;;;;;;1.40;1.30;;;;;;;;;;5665123;25;20223;-50
2024/04/19 01:08:30;;;;;;;1.65;1.55;;;;;;;;;;5679602;25;20207;-48
2024/04/19 01:11:00;;;;;;;1.20;1.10;;;;;;;;;;5679475;25;20238;-48
2024/04/19 01:13:26;;;;;;;1.38;1.30;;;;;;;;;;5647810;25;20746;-51
2024/04/19 01:15:58;;;;;;;1.17;1.17;;;;;;;;;;5662987;25;20220;-52
2024/04/19 01:18:25;;;;;;;1.27;1.10;;;;;;;;;;5663113;25;20714;-48
2024/04/19 01:20:54;;;;;;;2.20;1.98;;;;;;;;;;5662901;25;20734;-49
2024/04/19 01:23:20;;;;;;;1.70;1.60;;;;;;;;;;5649047;25;20563;-52
2024/04/19 01:25:50;;;;;;;2.47;1.60;;;;;;;;;;5660401;25;20350;-49
2024/04/19 01:28:20;;;;;;;1.63;1.52;;;;;;;;;;5662490;25;20355;-52
2024/04/19 01:30:49;;;;;;;1.50;1.40;;;;;;;;;;5658511;25;20344;-49
2024/04/19 01:33:15;;;;;;;2.10;1.48;;;;;;;;;;5652234;25;20270;-48
2024/04/19 01:35:45;;;;;;;1.40;1.30;;;;;;;;;;5662593;25;20573;-48
2024/04/19 01:38:11;;;;;;;1.52;1.40;;;;;;;;;;5667662;25;20217;-48
2024/04/19 01:40:40;;;;;;;1.45;1.38;;;;;;;;;;5657564;25;20562;-48
2024/04/19 01:43:07;;;;;;;1.20;1.10;;;;;;;;;;5660266;25;20232;-51
2024/04/19 01:45:39;;;;;;;2.90;1.58;;;;;;;;;;5646209;25;20221;-47
2024/04/19 01:48:06;;;;;;;2.05;1.83;;;;;;;;;;5662725;25;20270;-51
2024/04/19 01:50:35;;;;;;;1.20;1.20;;;;;;;;;;5661760;25;20211;-51
2024/04/19 01:53:02;;;;;;;1.48;1.40;;;;;;;;;;5664694;25;20277;-52
2024/04/19 01:55:32;;;;;;;2.70;2.47;;;;;;;;;;5678493;25;20279;-48
2024/04/19 01:57:58;;;;;;;1.65;1.40;;;;;;;;;;5662820;25;20270;-47
2024/04/19 02:00:27;;;;;;;1.20;1.20;;;;;;;;;;5679217;25;20275;-51
2024/04/19 02:02:56;;;;;;;1.33;1.23;;;;;;;;;;5678717;25;20224;-50
2024/04/19 02:05:25;;;;;;;1.58;1.45;;;;;;;;;;5678557;25;20271;-49
2024/04/19 02:07:52;;;;;;;1.48;1.38;;;;;;;;;;5662517;25;20250;-51
2024/04/19 02:10:21;;;;;;;1.42;1.33;;;;;;;;;;5662528;25;20331;-51
2024/04/19 02:12:47;;;;;;;1.80;1.30;;;;;;;;;;5662258;25;20228;-51
2024/04/19 02:15:19;;;;;;;2.40;1.65;;;;;;;;;;5662539;25;20271;-50
2024/04/19 02:17:48;;;;;;;1.33;1.20;;;;;;;;;;5678919;25;20251;-48
2024/04/19 02:20:20;;;;;;;1.17;1.13;;;;;;;;;;5662448;25;20596;-47
2024/04/19 02:22:46;;;;;;;1.02;1.02;;;;;;;;;;5678265;25;20228;-47
2024/04/19 02:25:16;;;;;;;1.60;1.50;;;;;;;;;;5662333;25;20557;-48
2024/04/19 02:33:15;;;;;;;1.08;1.02;;;;;;;;;;5681014;25;20271;-48
2024/04/19 02:35:46;;;;;;;1.42;1.38;;;;;;;;;;5677690;25;20232;-50
2024/04/19 02:38:16;;;;;;;1.90;1.75;;;;;;;;;;5662221;25;20753;-48
2024/04/19 02:40:45;;;;;;;1.50;1.40;;;;;;;;;;5678316;25;20224;-47
2024/04/19 02:43:14;;;;;;;1.70;1.60;;;;;;;;;;5677760;25;20749;-48
2024/04/19 02:45:43;;;;;;;2.20;2.10;;;;;;;;;;5661893;25;20258;-52
2024/04/19 02:48:12;;;;;;;2.60;2.45;;;;;;;;;;5662317;25;20251;-50
2024/04/19 02:50:42;;;;;;;1.98;1.83;;;;;;;;;;5662302;25;20219;-48
2024/04/19 02:53:13;;;;;;;2.22;2.13;;;;;;;;;;5677884;25;20220;-48
2024/04/19 02:55:43;;;;;;;2.40;2.20;;;;;;;;;;5661185;25;20254;-47
2024/04/19 02:58:12;;;;;;;2.90;1.75;;;;;;;;;;5678314;25;20738;-48
2024/04/19 03:00:41;;;;;;;2.20;2.10;;;;;;;;;;5645318;25;20221;-48
2024/04/19 03:03:10;;;;;;;2.80;2.60;;;;;;;;;;5667454;25;20263;-47
2024/04/19 03:05:39;;;;;;;3.28;2.90;;;;;;;;;;5654539;25;20285;-52
2024/04/19 03:08:09;;;;;;;2.72;2.10;;;;;;;;;;5654786;25;20224;-48
2024/04/19 03:10:43;;;;;;;3.08;2.63;;;;;;;;;;5656065;25;20246;-48
2024/04/19 03:13:11;;;;;;;2.58;2.38;;;;;;;;;;5666777;25;20310;-50
2024/04/19 03:15:40;;;;;;;2.63;2.40;;;;;;;;;;5656272;25;20220;-47
2024/04/19 03:18:10;;;;;;;2.92;2.72;;;;;;;;;;5677399;25;20699;-48
2024/04/19 03:20:36;;;;;;;3.10;2.88;;;;;;;;;;5677599;25;20250;-49
2024/04/19 03:23:06;;;;;;;2.33;2.17;;;;;;;;;;5676933;25;20228;-47
2024/04/19 03:25:38;;;;;;;2.33;2.00;;;;;;;;;;5644836;25;20233;-46
2024/04/19 03:28:10;;;;;;;3.22;2.85;;;;;;;;;;5656795;25;20216;-54
2024/04/19 03:30:39;;;;;;;3.00;2.80;;;;;;;;;;5672813;25;20220;-48
2024/04/19 03:33:08;;;;;;;2.22;2.05;;;;;;;;;;5676757;25;20228;-48
2024/04/19 03:35:44;;;;;;;4.07;2.33;;;;;;;;;;5676506;25;20224;-52
2024/04/19 03:38:14;;;;;;;4.40;3.47;;;;;;;;;;5676698;25;20441;-51
2024/04/19 03:40:43;;;;;;;3.58;2.60;;;;;;;;;;5677019;25;20263;-51
2024/04/19 03:43:15;;;;;;;2.63;2.42;;;;;;;;;;5676633;25;20305;-50
2024/04/19 03:45:43;;;;;;;2.65;2.00;;;;;;;;;;5676462;25;20335;-47
2024/04/19 03:48:13;;;;;;;2.28;2.08;;;;;;;;;;5676492;25;20296;-47
2024/04/19 03:50:43;;;;;;;2.53;2.33;;;;;;;;;;5672807;25;20556;-47
2024/04/19 03:53:14;;;;;;;2.55;2.40;;;;;;;;;;5653768;25;20293;-49
2024/04/19 03:55:43;;;;;;;2.60;2.40;;;;;;;;;;5673762;25;20617;-49
2024/04/19 03:58:15;;;;;;;2.45;2.22;;;;;;;;;;5676546;25;20216;-49
2024/04/19 04:00:44;;;;;;;2.90;2.60;;;;;;;;;;5676407;25;20224;-49
2024/04/19 04:03:13;;;;;;;2.20;2.05;;;;;;;;;;5664161;25;20264;-49
2024/04/19 04:05:42;;;;;;;3.42;2.58;;;;;;;;;;5673023;25;20215;-52
2024/04/19 04:08:11;;;;;;;2.83;2.63;;;;;;;;;;5676318;25;20599;-49
2024/04/19 04:10:40;;;;;;;2.88;2.65;;;;;;;;;;5676343;25;20254;-50
2024/04/19 04:13:09;;;;;;;2.75;2.55;;;;;;;;;;5675864;25;20224;-47
2024/04/19 04:15:42;;;;;;;2.53;2.33;;;;;;;;;;5675650;25;20250;-50
2024/04/19 04:18:11;;;;;;;2.13;1.92;;;;;;;;;;5676221;25;20991;-51
2024/04/19 04:20:41;;;;;;;2.58;2.38;;;;;;;;;;5676186;25;20243;-48
2024/04/19 04:23:10;;;;;;;3.85;2.25;;;;;;;;;;5675886;25;20223;-47
2024/04/19 04:25:39;;;;;;;2.40;2.20;;;;;;;;;;5675517;25;20251;-48
2024/04/19 04:28:08;;;;;;;2.17;2.08;;;;;;;;;;5676070;25;20262;-51
2024/04/19 04:30:40;;;;;;;2.35;2.13;;;;;;;;;;5674755;25;20224;-48
2024/04/19 04:33:09;;;;;;;2.33;2.13;;;;;;;;;;5648104;25;20271;-48
2024/04/19 04:35:39;;;;;;;2.35;2.15;;;;;;;;;;5673833;25;20551;-51
2024/04/19 04:38:09;;;;;;;2.00;1.90;;;;;;;;;;5675762;25;20676;-50
2024/04/19 04:40:38;;;;;;;2.00;1.90;;;;;;;;;;5675495;25;20265;-47
2024/04/19 04:43:07;;;;;;;2.13;1.92;;;;;;;;;;5675629;25;20220;-48
2024/04/19 04:45:36;;;;;;;3.08;2.42;;;;;;;;;;5675533;25;20220;-49
2024/04/19 04:48:10;;;;;;;2.28;2.08;;;;;;;;;;5675807;25;20706;-49
2024/04/19 04:50:40;;;;;;;2.40;2.20;;;;;;;;;;5675247;25;20228;-50
2024/04/19 04:53:10;;;;;;;2.35;2.25;;;;;;;;;;5675469;25;20226;-51
2024/04/19 04:55:39;;;;;;;1.83;1.70;;;;;;;;;;5675164;25;20289;-52
2024/04/19 04:58:08;;;;;;;2.50;2.30;;;;;;;;;;5675569;25;20717;-50
2024/04/19 05:00:38;;;;;;;2.45;2.25;;;;;;;;;;5675218;25;20271;-48
2024/04/19 05:03:10;;;;;;;2.35;2.15;;;;;;;;;;5675046;25;20236;-49
2024/04/19 05:05:40;;;;;;;1.73;1.63;;;;;;;;;;5674721;25;20258;-48
2024/04/19 05:08:09;;;;;;;1.60;1.55;;;;;;;;;;5674952;25;20216;-49
2024/04/19 05:10:38;;;;;;;1.80;1.70;;;;;;;;;;5672250;25;20258;-49
2024/04/19 05:13:07;;;;;;;1.85;1.75;;;;;;;;;;5662302;25;20250;-48
2024/04/19 05:15:36;;;;;;;1.73;1.63;;;;;;;;;;5674696;25;20597;-50
2024/04/19 05:18:08;;;;;;;1.98;1.83;;;;;;;;;;5674841;25;20266;-47
2024/04/19 05:20:38;;;;;;;1.80;1.70;;;;;;;;;;5674534;25;20714;-48
2024/04/19 05:23:07;;;;;;;1.98;1.88;;;;;;;;;;5674557;25;20220;-50
2024/04/19 05:25:39;;;;;;;1.90;1.80;;;;;;;;;;5672440;25;20259;-49
2024/04/19 05:28:09;;;;;;;1.67;1.58;;;;;;;;;;5662278;25;20343;-52
2024/04/19 05:30:38;;;;;;;1.60;1.50;;;;;;;;;;5674573;25;20228;-50
2024/04/19 05:33:09;;;;;;;1.70;1.60;;;;;;;;;;5674269;25;20267;-52
2024/04/19 05:35:39;;;;;;;1.40;1.30;;;;;;;;;;5673020;25;20271;-48
2024/04/19 05:38:08;;;;;;;1.15;1.15;;;;;;;;;;5662013;25;20593;-50
2024/04/19 05:40:37;;;;;;;2.00;1.90;;;;;;;;;;5672185;25;20262;-50
2024/04/19 05:43:07;;;;;;;1.38;1.30;;;;;;;;;;5674644;25;20351;-48
2024/04/19 05:45:36;;;;;;;1.88;1.52;;;;;;;;;;5658836;25;20255;-50
2024/04/19 05:48:09;;;;;;;1.00;1.00;;;;;;;;;;5677843;25;20259;-48
2024/04/19 05:50:38;;;;;;;1.20;1.20;;;;;;;;;;5678344;25;20220;-51
2024/04/19 05:53:08;;;;;;;1.45;1.35;;;;;;;;;;5677580;25;20220;-49
2024/04/19 05:55:37;;;;;;;1.10;1.10;;;;;;;;;;5678187;25;20258;-52
2024/04/19 05:58:06;;;;;;;1.17;1.17;;;;;;;;;;5678445;25;20216;-48
2024/04/19 06:00:35;;;;;;;0.98;0.98;;;;;;;;;;5677177;25;20220;-50
2024/04/19 06:03:04;;;;;;;1.25;1.17;;;;;;;;;;5678113;25;20220;-49
2024/04/19 06:05:36;;;;;;;1.08;1.00;;;;;;;;;;5676888;25;20343;-48
2024/04/19 06:08:07;;;;;;;1.17;1.10;;;;;;;;;;5663991;25;20220;-50
2024/04/19 06:10:36;;;;;;;1.30;1.20;;;;;;;;;;5676318;25;20332;-53
2024/04/19 06:13:06;;;;;;;1.35;1.17;;;;;;;;;;5677363;25;20228;-49
2024/04/19 06:15:35;;;;;;;0.88;0.88;;;;;;;;;;5676480;25;20326;-47
2024/04/19 06:18:04;;;;;;;1.02;1.02;;;;;;;;;;5678034;25;20552;-48
2024/04/19 06:20:39;;;;;;;0.90;0.90;;;;;;;;;;5676113;25;20216;-48
2024/04/19 06:23:08;;;;;;;1.15;0.98;;;;;;;;;;5664925;25;20709;-48
2024/04/19 06:25:37;;;;;;;1.00;1.00;;;;;;;;;;5675702;25;20266;-48
2024/04/19 06:28:07;;;;;;;1.15;1.05;;;;;;;;;;5677016;25;20753;-51
2024/04/19 06:30:36;;;;;;;0.90;0.90;;;;;;;;;;5677591;25;20223;-49
2024/04/19 06:33:06;;;;;;;0.90;0.90;;;;;;;;;;5677600;25;20224;-47
2024/04/19 06:35:37;;;;;;;1.00;1.00;;;;;;;;;;5676345;25;20232;-50
2024/04/19 06:38:07;;;;;;;0.80;0.80;;;;;;;;;;5663835;25;20271;-49
2024/04/19 06:40:37;;;;;;;0.90;0.90;;;;;;;;;;5675732;25;20258;-49
2024/04/19 06:43:07;;;;;;;0.70;0.70;;;;;;;;;;5676539;25;20224;-48
2024/04/19 06:45:37;;;;;;;0.98;0.98;;;;;;;;;;5676432;25;20219;-49
2024/04/19 06:48:08;;;;;;;0.82;0.82;;;;;;;;;;5677937;25;20215;-50
2024/04/19 06:50:40;;;;;;;0.80;0.80;;;;;;;;;;5660563;25;20268;-49
2024/04/19 06:53:09;;;;;;;0.75;0.75;;;;;;;;;;5676855;25;20274;-48
2024/04/19 06:55:38;;;;;;;0.90;0.90;;;;;;;;;;5676826;25;20557;-48
2024/04/19 06:58:07;;;;;;;0.70;0.70;;;;;;;;;;5675589;25;20773;-49
2024/04/19 07:00:39;;;;;;;0.88;0.88;;;;;;;;;;5676505;25;20329;-50
2024/04/19 07:03:08;;;;;;;0.70;0.70;;;;;;;;;;5676517;25;20224;-48
2024/04/19 07:05:40;;;;;;;0.80;0.80;;;;;;;;;;5676370;25;20220;-48
2024/04/19 07:08:07;;;;;;;0.90;0.90;;;;;;;;;;5677556;25;20703;-52
2024/04/19 07:10:40;;;;;;;0.98;0.98;;;;;;;;;;5677144;25;20262;-53
2024/04/19 07:13:10;;;;;;;0.90;0.90;;;;;;;;;;5676470;25;20219;-48
2024/04/19 07:15:40;;;;;;;1.13;0.80;;;;;;;;;;5677107;25;20216;-51
2024/04/19 07:18:09;;;;;;;0.80;0.80;;;;;;;;;;5667245;25;20217;-48
2024/04/19 07:20:41;;;;;;;0.70;0.70;;;;;;;;;;5670835;25;20274;-48
2024/04/19 07:23:10;;;;;;;0.85;0.85;;;;;;;;;;5651656;25;20225;-48
2024/04/19 07:25:39;;;;;;;0.80;0.80;;;;;;;;;;5653805;25;20221;-48
2024/04/19 07:28:08;;;;;;;0.90;0.90;;;;;;;;;;5654269;25;20225;-49
2024/04/19 07:30:38;;;;;;;0.90;0.90;;;;;;;;;;5654070;25;20217;-47
2024/04/19 07:33:07;;;;;;;1.30;0.80;;;;;;;;;;5653449;25;20225;-49
2024/04/19 07:35:39;;;;;;;0.95;0.90;;;;;;;;;;5670583;25;20220;-49
2024/04/19 07:38:11;;;;;;;0.70;0.70;;;;;;;;;;5677212;25;20262;-49
2024/04/19 07:40:41;;;;;;;0.77;0.75;;;;;;;;;;5675338;25;20246;-48
2024/04/19 07:43:11;;;;;;;1.48;0.65;;;;;;;;;;5674083;25;20236;-54
2024/04/19 07:45:40;;;;;;;0.60;0.60;;;;;;;;;;5675867;25;20254;-52
2024/04/19 07:48:10;;;;;;;0.63;0.63;;;;;;;;;;5676540;25;20549;-48
2024/04/19 07:50:43;;;;;;;0.60;0.60;;;;;;;;;;5675773;25;20219;-48
2024/04/19 07:53:12;;;;;;;1.00;1.00;;;;;;;;;;5676816;25;20558;-49
2024/04/19 07:55:42;;;;;;;0.95;0.80;;;;;;;;;;5675556;25;20757;-48
2024/04/19 07:58:11;;;;;;;0.70;0.70;;;;;;;;;;5676736;25;20224;-51
2024/04/19 08:00:40;;;;;;;0.60;0.60;;;;;;;;;;5675370;25;20572;-52
2024/04/19 08:03:10;;;;;;;0.50;0.50;;;;;;;;;;5675605;25;20220;-48
2024/04/19 08:05:41;;;;;;;0.57;0.57;;;;;;;;;;5675526;25;20215;-48
2024/04/19 08:08:10;;;;;;;0.60;0.60;;;;;;;;;;5675726;25;20224;-50
2024/04/19 08:10:40;;;;;;;0.60;0.60;;;;;;;;;;5675497;25;20258;-49
2024/04/19 08:13:09;;;;;;;0.60;0.60;;;;;;;;;;5675629;25;20279;-50
2024/04/19 08:15:35;;;;;;;0.70;0.70;;;;;;;;;;5675440;25;20216;-52
2024/04/19 08:18:04;;;;;;;1.75;0.75;;;;;;;;;;5675508;25;20254;-48
2024/04/19 08:20:33;;;;;;;0.63;0.63;;;;;;;;;;5660108;25;20263;-48
2024/04/19 08:23:05;;;;;;;0.68;0.68;;;;;;;;;;5661449;25;20223;-47
2024/04/19 08:25:34;;;;;;;0.98;0.80;;;;;;;;;;5675166;25;20224;-48
2024/04/19 08:28:04;;;;;;;0.55;0.55;;;;;;;;;;5660857;25;20216;-49
2024/04/19 08:30:33;;;;;;;0.50;0.50;;;;;;;;;;5675250;25;20245;-53
2024/04/19 08:33:02;;;;;;;0.80;0.80;;;;;;;;;;5660158;25;20571;-48
2024/04/19 08:35:31;;;;;;;0.43;0.40;;;;;;;;;;5675400;25;20228;-50
2024/04/19 08:38:00;;;;;;;0.40;0.40;;;;;;;;;;5659963;25;20266;-51
2024/04/19 08:40:32;;;;;;;1.33;0.55;;;;;;;;;;5675486;25;20258;-52
2024/04/19 08:43:01;;;;;;;0.70;0.70;;;;;;;;;;5660251;25;20223;-48
2024/04/19 08:45:30;;;;;;;0.50;0.50;;;;;;;;;;5674929;25;20215;-52
2024/04/19 08:48:00;;;;;;;0.40;0.40;;;;;;;;;;5675558;25;20254;-52
2024/04/19 08:50:30;;;;;;;0.52;0.52;;;;;;;;;;5659913;25;20268;-49
2024/04/19 08:52:59;;;;;;;0.57;0.57;;;;;;;;;;5659291;25;20267;-49
2024/04/19 08:55:31;;;;;;;0.43;0.43;;;;;;;;;;5675242;25;20719;-48
2024/04/19 08:58:00;;;;;;;0.47;0.47;;;;;;;;;;5659332;25;20540;-49
2024/04/19 09:00:30;;;;;;;0.43;0.40;;;;;;;;;;5674756;25;20263;-51
2024/04/19 09:02:59;;;;;;;0.38;0.38;;;;;;;;;;5675329;25;20223;-49
2024/04/19 09:05:28;;;;;;;0.50;0.50;;;;;;;;;;5674829;25;20219;-51
2024/04/19 09:07:57;;;;;;;0.40;0.40;;;;;;;;;;5674879;25;20276;-48
2024/04/19 09:10:27;;;;;;;0.50;0.50;;;;;;;;;;5675037;25;20267;-48
2024/04/19 09:12:59;;;;;;;0.30;0.30;;;;;;;;;;5675007;25;20711;-50
2024/04/19 09:15:29;;;;;;;0.32;0.32;;;;;;;;;;5674505;25;20349;-51
2024/04/19 09:17:59;;;;;;;0.50;0.50;;;;;;;;;;5675212;25;20563;-48
2024/04/19 09:20:28;;;;;;;0.30;0.30;;;;;;;;;;5675216;25;20731;-49
2024/04/19 09:22:57;;;;;;;0.30;0.30;;;;;;;;;;5677659;25;20562;-48
2024/04/19 09:25:26;;;;;;;1.80;0.57;;;;;;;;;;5662387;25;20224;-49
2024/04/19 09:27:58;;;;;;;0.38;0.38;;;;;;;;;;5678952;25;20606;-48
2024/04/19 09:30:28;;;;;;;0.40;0.40;;;;;;;;;;5678541;25;20557;-49
2024/04/19 09:32:57;;;;;;;0.30;0.30;;;;;;;;;;5678040;25;20289;-49
